createdAt,value
2022-09-30T00:02:05.351Z,21.16
2022-09-30T00:04:33.381Z,21.23
2022-09-30T00:07:01.525Z,21.10
2022-09-30T00:09:29.602Z,21.29
2022-09-30T00:12:00.026Z,21.21
2022-09-30T00:14:28.573Z,21.01
2022-09-30T00:16:59.173Z,20.89
2022-09-30T00:19:27.248Z,20.87
2022-09-30T00:21:55.318Z,20.67
2022-09-30T00:24:23.396Z,20.61
2022-09-30T00:26:51.430Z,20.40
2022-09-30T00:29:22.206Z,20.44
2022-09-30T00:31:50.494Z,20.36
2022-09-30T00:34:18.514Z,20.27
2022-09-30T00:36:54.692Z,20.30
2022-09-30T00:39:28.395Z,20.02
2022-09-30T00:42:05.298Z,19.71
2022-09-30T00:44:51.652Z,19.70
2022-09-30T00:47:34.292Z,19.54
2022-09-30T00:50:27.955Z,19.38
2022-09-30T00:53:16.317Z,19.39
2022-09-30T00:56:26.752Z,19.47
2022-09-30T00:59:17.215Z,19.38
2022-09-30T01:01:45.822Z,19.37
2022-09-30T01:04:19.061Z,19.27
2022-09-30T01:06:47.300Z,18.99
2022-09-30T01:09:15.690Z,18.90
2022-09-30T01:11:44.081Z,18.61
2022-09-30T01:14:19.420Z,18.37
2022-09-30T01:17:32.053Z,18.29
2022-09-30T01:20:30.143Z,18.23
2022-09-30T01:23:19.581Z,18.12
2022-09-30T01:26:14.799Z,17.79
2022-09-30T01:28:59.651Z,17.80
2022-09-30T01:31:42.945Z,17.75
2022-09-30T01:34:32.320Z,17.53
2022-09-30T01:37:15.428Z,17.59
2022-09-30T01:40:06.296Z,17.51
2022-09-30T01:42:55.674Z,17.58
2022-09-30T01:45:41.564Z,17.66
2022-09-30T01:48:31.305Z,17.11
2022-09-30T01:51:05.542Z,17.07
2022-09-30T01:54:08.718Z,16.98
2022-09-30T01:56:49.725Z,16.82
2022-09-30T01:59:32.549Z,16.41
2022-09-30T02:02:08.811Z,16.40
2022-09-30T02:04:43.360Z,16.24
2022-09-30T02:07:23.218Z,15.94
2022-09-30T02:10:06.644Z,15.82
2022-09-30T02:12:39.607Z,15.60
2022-09-30T02:15:14.659Z,15.53
2022-09-30T02:17:53.062Z,15.87
2022-09-30T02:20:28.929Z,16.00
2022-09-30T02:23:29.966Z,16.03
2022-09-30T02:26:04.626Z,15.34
2022-09-30T02:28:39.769Z,15.17
2022-09-30T02:31:10.836Z,15.59
2022-09-30T02:34:00.684Z,15.36
2022-09-30T02:36:49.546Z,15.66
2022-09-30T02:39:48.486Z,15.87
2022-09-30T02:42:26.732Z,15.90
2022-09-30T02:44:56.882Z,15.82
2022-09-30T02:47:51.178Z,15.73
2022-09-30T02:50:33.162Z,16.04
2022-09-30T02:53:06.952Z,15.61
2022-09-30T02:55:52.029Z,15.92
2022-09-30T02:58:24.945Z,15.78
2022-09-30T03:00:54.713Z,15.60
2022-09-30T03:03:52.428Z,15.52
2022-09-30T03:06:21.089Z,15.36
2022-09-30T03:08:53.214Z,15.26
2022-09-30T03:11:24.971Z,15.49
2022-09-30T03:14:11.153Z,15.57
2022-09-30T03:16:45.013Z,15.50
2022-09-30T03:19:26.918Z,15.50
2022-09-30T03:22:13.489Z,15.43
2022-09-30T03:24:47.547Z,15.36
2022-09-30T03:27:18.234Z,15.16
2022-09-30T03:30:08.884Z,15.02
2022-09-30T03:33:07.170Z,14.66
2022-09-30T03:35:56.777Z,14.58
2022-09-30T03:38:24.771Z,14.47
2022-09-30T03:41:00.638Z,14.34
2022-09-30T03:43:39.816Z,14.32
2022-09-30T03:46:19.480Z,14.25
2022-09-30T03:48:49.210Z,14.23
2022-09-30T03:51:18.442Z,14.08
2022-09-30T03:53:49.115Z,14.08
2022-09-30T03:56:24.705Z,14.35
2022-09-30T03:58:55.403Z,14.17
2022-09-30T04:01:24.604Z,14.03
2022-09-30T04:03:53.916Z,13.95
2022-09-30T04:06:26.145Z,13.65
2022-09-30T04:08:54.208Z,13.47
2022-09-30T04:11:22.233Z,13.57
2022-09-30T04:13:52.732Z,13.68
2022-09-30T04:16:20.820Z,13.40
2022-09-30T04:18:48.918Z,13.32
2022-09-30T04:21:17.415Z,13.32
2022-09-30T04:23:45.456Z,13.18
2022-09-30T04:26:17.080Z,12.98
2022-09-30T04:28:45.203Z,12.96
2022-09-30T04:31:14.848Z,12.85
2022-09-30T04:33:42.937Z,12.80
2022-09-30T04:36:13.596Z,12.87
2022-09-30T04:38:41.610Z,12.95
2022-09-30T04:41:13.032Z,12.83
2022-09-30T04:43:42.825Z,12.73
2022-09-30T04:46:16.611Z,12.76
2022-09-30T04:48:46.137Z,12.68
2022-09-30T04:51:19.457Z,12.58
2022-09-30T04:53:48.435Z,12.47
2022-09-30T04:56:17.172Z,12.49
2022-09-30T04:58:45.445Z,12.61
2022-09-30T05:01:20.049Z,12.38
2022-09-30T05:03:48.196Z,12.25
2022-09-30T05:06:18.916Z,11.91
2022-09-30T05:08:49.701Z,11.99
2022-09-30T05:11:19.968Z,11.95
2022-09-30T05:13:49.164Z,11.82
2022-09-30T05:16:19.919Z,11.66
2022-09-30T05:18:47.972Z,11.69
2022-09-30T05:21:19.102Z,11.65
2022-09-30T05:23:50.205Z,11.71
2022-09-30T05:26:18.356Z,11.56
2022-09-30T05:28:46.372Z,11.75
2022-09-30T05:31:14.466Z,11.67
2022-09-30T05:33:42.698Z,11.49
2022-09-30T05:36:14.969Z,11.52
2022-09-30T05:38:43.095Z,11.48
2022-09-30T05:41:15.531Z,11.45
2022-09-30T05:43:44.726Z,11.34
2022-09-30T05:46:13.135Z,11.28
2022-09-30T05:48:46.685Z,10.95
2022-09-30T05:51:14.717Z,10.99
2022-09-30T05:53:42.690Z,11.03
2022-09-30T05:56:11.776Z,11.07
2022-09-30T05:58:39.929Z,10.98
2022-09-30T06:01:14.217Z,10.97
2022-09-30T06:03:44.321Z,11.14
2022-09-30T06:06:16.274Z,10.89
2022-09-30T06:08:44.607Z,10.81
2022-09-30T06:11:15.598Z,10.81
2022-09-30T06:13:44.469Z,10.86
2022-09-30T06:16:13.166Z,10.79
2022-09-30T06:18:41.988Z,10.90
2022-09-30T06:21:13.040Z,10.91
2022-09-30T06:23:43.410Z,10.86
2022-09-30T06:26:13.519Z,10.81
2022-09-30T06:28:42.108Z,10.82
2022-09-30T06:31:10.810Z,10.89
2022-09-30T06:33:38.891Z,10.84
2022-09-30T06:36:07.044Z,10.48
2022-09-30T06:38:36.148Z,10.36
2022-09-30T06:41:05.141Z,10.31
2022-09-30T06:43:40.101Z,10.21
2022-09-30T06:46:19.969Z,9.79
2022-09-30T06:49:09.367Z,9.41
2022-09-30T06:51:40.520Z,9.68
2022-09-30T06:54:08.939Z,9.72
2022-09-30T06:56:39.353Z,9.79
2022-09-30T06:59:07.388Z,9.75
2022-09-30T07:01:35.449Z,9.82
2022-09-30T07:04:08.040Z,9.80
2022-09-30T07:06:39.403Z,9.68
2022-09-30T07:09:13.484Z,9.62
2022-09-30T07:11:41.612Z,9.77
2022-09-30T07:14:10.154Z,9.78
2022-09-30T07:16:38.539Z,9.89
2022-09-30T07:19:11.744Z,9.95
2022-09-30T07:21:39.811Z,9.66
2022-09-30T07:24:07.941Z,9.84
2022-09-30T07:26:36.066Z,9.87
2022-09-30T07:29:06.460Z,9.77
2022-09-30T07:31:39.629Z,9.45
2022-09-30T07:34:11.648Z,9.79
2022-09-30T07:36:40.964Z,9.76
2022-09-30T07:39:12.063Z,9.49
2022-09-30T07:41:41.151Z,9.41
2022-09-30T07:44:14.094Z,9.04
2022-09-30T07:46:42.877Z,9.17
2022-09-30T07:49:16.625Z,8.97
2022-09-30T07:51:47.385Z,9.04
2022-09-30T07:54:18.232Z,9.07
2022-09-30T07:57:09.136Z,9.04
2022-09-30T07:59:40.285Z,8.97
2022-09-30T08:02:18.316Z,9.02
2022-09-30T08:04:47.322Z,9.06
2022-09-30T08:07:16.833Z,9.11
2022-09-30T08:09:45.073Z,9.16
2022-09-30T08:12:15.736Z,9.09
2022-09-30T08:14:43.810Z,9.16
2022-09-30T08:17:11.792Z,9.06
2022-09-30T08:19:42.210Z,8.84
2022-09-30T08:22:10.245Z,8.59
2022-09-30T08:24:38.248Z,8.44
2022-09-30T08:27:06.421Z,8.48
2022-09-30T08:29:54.004Z,8.32
2022-09-30T08:32:23.474Z,8.39
2022-09-30T08:34:51.564Z,8.51
2022-09-30T08:37:19.589Z,8.55
2022-09-30T08:39:47.632Z,8.67
2022-09-30T08:42:41.349Z,8.78
2022-09-30T08:45:21.412Z,8.79
2022-09-30T08:48:14.505Z,8.74
2022-09-30T08:51:04.852Z,8.88
2022-09-30T08:53:41.769Z,8.74
2022-09-30T08:56:18.557Z,8.69
2022-09-30T08:58:51.149Z,8.73
2022-09-30T09:01:29.885Z,8.71
2022-09-30T09:04:02.189Z,8.60
2022-09-30T09:06:30.170Z,8.79
2022-09-30T09:09:10.036Z,8.80
2022-09-30T09:11:55.773Z,8.71
2022-09-30T09:14:30.374Z,8.78
2022-09-30T09:17:24.143Z,8.71
2022-09-30T09:20:03.967Z,8.52
2022-09-30T09:22:35.110Z,8.52
2022-09-30T09:25:05.299Z,8.39
2022-09-30T09:27:59.517Z,8.63
2022-09-30T09:30:34.352Z,8.74
2022-09-30T09:33:21.511Z,8.70
2022-09-30T09:35:52.208Z,8.90
2022-09-30T09:38:23.182Z,8.77
2022-09-30T09:40:51.163Z,8.81
2022-09-30T09:43:42.794Z,8.73
2022-09-30T09:46:56.518Z,8.90
2022-09-30T09:49:35.904Z,9.00
2022-09-30T09:52:06.601Z,9.03
2022-09-30T09:54:49.265Z,9.01
2022-09-30T09:57:19.752Z,8.90
2022-09-30T10:00:09.175Z,8.89
2022-09-30T10:02:39.883Z,8.83
2022-09-30T10:05:23.904Z,8.78
2022-09-30T10:08:14.855Z,8.67
2022-09-30T10:10:50.437Z,8.61
2022-09-30T10:13:47.796Z,8.59
2022-09-30T10:16:38.291Z,8.51
2022-09-30T10:19:26.175Z,8.42
2022-09-30T10:22:09.479Z,8.47
2022-09-30T10:24:41.295Z,8.49
2022-09-30T10:27:33.818Z,8.47
2022-09-30T10:30:01.883Z,8.43
2022-09-30T10:32:30.873Z,8.38
2022-09-30T10:35:17.403Z,8.29
2022-09-30T10:37:53.307Z,8.32
2022-09-30T10:40:30.377Z,8.36
2022-09-30T10:42:59.178Z,8.33
2022-09-30T10:45:39.365Z,8.32
2022-09-30T10:48:19.693Z,8.38
2022-09-30T10:50:58.245Z,8.56
2022-09-30T10:53:29.138Z,8.70
2022-09-30T10:55:58.009Z,8.72
2022-09-30T10:58:46.920Z,8.85
2022-09-30T11:01:57.522Z,8.20
2022-09-30T11:04:35.293Z,7.32
2022-09-30T11:07:21.788Z,7.66
2022-09-30T11:10:00.633Z,7.77
2022-09-30T11:13:05.624Z,7.86
2022-09-30T11:15:53.379Z,7.85
2022-09-30T11:18:52.217Z,7.85
2022-09-30T11:21:56.328Z,7.96
2022-09-30T11:24:37.585Z,7.97
2022-09-30T11:27:08.532Z,8.03
2022-09-30T11:30:09.526Z,7.41
2022-09-30T11:32:55.891Z,7.59
2022-09-30T11:35:26.808Z,7.57
2022-09-30T11:38:09.746Z,7.62
2022-09-30T11:41:12.202Z,7.33
2022-09-30T11:43:49.096Z,7.31
2022-09-30T11:46:38.734Z,7.19
2022-09-30T11:49:06.669Z,7.39
2022-09-30T11:51:45.369Z,7.47
2022-09-30T11:54:40.984Z,7.30
2022-09-30T11:57:15.131Z,7.32
2022-09-30T11:59:54.760Z,7.34
2022-09-30T12:02:28.666Z,7.39
2022-09-30T12:05:04.969Z,7.53
2022-09-30T12:07:51.865Z,7.57
2022-09-30T12:10:28.498Z,7.55
2022-09-30T12:13:04.466Z,7.57
2022-09-30T12:15:36.657Z,7.56
2022-09-30T12:18:10.773Z,7.59
2022-09-30T12:20:49.724Z,7.61
2022-09-30T12:23:38.752Z,7.03
2022-09-30T12:26:12.776Z,6.99
2022-09-30T12:29:03.732Z,7.15
2022-09-30T12:31:56.092Z,7.06
2022-09-30T12:34:24.091Z,6.53
2022-09-30T12:36:59.367Z,6.78
2022-09-30T12:40:01.980Z,6.93
2022-09-30T12:42:53.577Z,7.33
2022-09-30T12:45:43.383Z,7.51
2022-09-30T12:48:17.562Z,7.58
2022-09-30T12:50:54.725Z,7.55
2022-09-30T12:53:25.595Z,7.27
2022-09-30T12:55:54.121Z,7.28
2022-09-30T12:58:38.012Z,7.25
2022-09-30T13:01:25.895Z,7.33
2022-09-30T13:03:59.767Z,7.34
2022-09-30T13:06:48.493Z,7.41
2022-09-30T13:09:29.842Z,7.61
2022-09-30T13:12:00.457Z,7.65
2022-09-30T13:14:36.391Z,6.98
2022-09-30T13:17:09.838Z,6.70
2022-09-30T13:19:47.409Z,6.65
2022-09-30T13:22:21.380Z,6.36
2022-09-30T13:24:58.290Z,6.25
2022-09-30T13:27:41.812Z,6.44
2022-09-30T13:30:15.607Z,6.47
2022-09-30T13:32:45.619Z,6.42
2022-09-30T13:35:31.765Z,6.28
2022-09-30T13:38:14.678Z,6.30
2022-09-30T13:41:03.002Z,6.43
2022-09-30T13:43:44.074Z,6.65
2022-09-30T13:46:43.719Z,6.82
2022-09-30T13:50:03.591Z,6.96
2022-09-30T13:52:38.669Z,7.10
2022-09-30T13:55:40.224Z,7.05
2022-09-30T13:58:45.406Z,6.89
2022-09-30T14:01:28.315Z,6.81
2022-09-30T14:04:38.292Z,6.56
2022-09-30T14:07:17.856Z,6.51
2022-09-30T14:10:10.008Z,6.59
2022-09-30T14:12:41.131Z,6.84
2022-09-30T14:15:24.089Z,7.04
2022-09-30T14:18:23.317Z,7.28
2022-09-30T14:21:00.923Z,7.40
2022-09-30T14:23:29.496Z,7.45
2022-09-30T14:26:18.596Z,7.41
2022-09-30T14:29:19.933Z,7.31
2022-09-30T14:31:48.956Z,7.29
2022-09-30T14:34:18.433Z,7.34
2022-09-30T14:36:46.655Z,7.41
2022-09-30T14:39:27.267Z,7.44
2022-09-30T14:41:59.203Z,7.52
2022-09-30T14:44:30.829Z,7.57
2022-09-30T14:47:00.217Z,7.70
2022-09-30T14:49:34.248Z,7.57
2022-09-30T14:52:06.778Z,7.43
2022-09-30T14:54:35.056Z,7.35
2022-09-30T14:57:15.876Z,7.30
2022-09-30T14:59:44.146Z,7.56
2022-09-30T15:02:18.517Z,7.68
2022-09-30T15:04:58.003Z,7.87
2022-09-30T15:07:28.534Z,8.12
2022-09-30T15:10:06.264Z,8.31
2022-09-30T15:12:42.940Z,8.49
2022-09-30T15:15:35.980Z,8.65
2022-09-30T15:18:33.326Z,8.83
2022-09-30T15:21:22.385Z,8.92
2022-09-30T15:23:53.732Z,9.08
2022-09-30T15:26:26.572Z,9.22
2022-09-30T15:28:55.080Z,9.25
2022-09-30T15:31:33.573Z,9.33
2022-09-30T15:34:07.332Z,9.43
2022-09-30T15:36:37.066Z,9.47
2022-09-30T15:39:06.786Z,9.50
2022-09-30T15:41:42.106Z,9.62
2022-09-30T15:44:38.962Z,9.69
2022-09-30T15:47:11.348Z,9.82
2022-09-30T15:49:39.334Z,9.89
2022-09-30T15:52:37.794Z,10.07
2022-09-30T15:55:38.344Z,10.25
2022-09-30T15:58:35.217Z,10.24
2022-09-30T16:01:39.723Z,10.32
2022-09-30T16:04:13.575Z,10.67
2022-09-30T16:06:57.520Z,11.01
2022-09-30T16:09:51.580Z,11.17
2022-09-30T16:12:24.653Z,11.17
2022-09-30T16:15:11.833Z,11.28
2022-09-30T16:17:45.512Z,11.62
2022-09-30T16:20:16.556Z,12.03
2022-09-30T16:22:44.481Z,11.94
2022-09-30T16:25:15.233Z,12.08
2022-09-30T16:27:46.474Z,12.29
2022-09-30T16:30:19.445Z,12.16
2022-09-30T16:32:53.576Z,12.20
2022-09-30T16:35:24.897Z,12.22
2022-09-30T16:38:00.679Z,12.45
2022-09-30T16:40:30.416Z,12.88
2022-09-30T16:42:58.544Z,12.99
2022-09-30T16:45:28.591Z,13.30
2022-09-30T16:47:58.999Z,13.45
2022-09-30T16:50:35.858Z,13.26
2022-09-30T16:53:04.583Z,13.49
2022-09-30T16:55:33.304Z,13.44
2022-09-30T16:58:01.847Z,13.35
2022-09-30T17:00:30.157Z,13.58
2022-09-30T17:02:58.380Z,13.54
2022-09-30T17:05:27.671Z,13.47
2022-09-30T17:07:58.698Z,13.82
2022-09-30T17:10:32.543Z,14.28
2022-09-30T17:13:01.377Z,14.17
2022-09-30T17:15:33.472Z,14.32
2022-09-30T17:18:05.005Z,14.57
2022-09-30T17:20:33.867Z,14.93
2022-09-30T17:23:06.396Z,15.29
2022-09-30T17:25:35.833Z,15.27
2022-09-30T17:28:06.909Z,15.49
2022-09-30T17:30:34.966Z,15.98
2022-09-30T17:33:02.940Z,16.17
2022-09-30T17:35:31.082Z,16.25
2022-09-30T17:37:59.071Z,16.34
2022-09-30T17:40:29.695Z,16.60
2022-09-30T17:42:58.743Z,16.87
2022-09-30T17:45:27.031Z,17.00
2022-09-30T17:47:55.085Z,17.14
2022-09-30T17:50:26.005Z,17.47
2022-09-30T17:52:53.978Z,17.55
2022-09-30T17:55:22.098Z,17.69
2022-09-30T17:57:53.010Z,17.74
2022-09-30T18:00:23.974Z,18.11
2022-09-30T18:02:52.069Z,17.52
2022-09-30T18:05:20.058Z,17.16
2022-09-30T18:07:48.546Z,17.37
2022-09-30T18:10:19.195Z,17.95
2022-09-30T18:12:47.277Z,17.97
2022-09-30T18:15:15.348Z,18.24
2022-09-30T18:17:43.824Z,18.85
2022-09-30T18:20:13.591Z,18.63
2022-09-30T18:22:42.285Z,18.65
2022-09-30T18:25:10.717Z,18.71
2022-09-30T18:27:41.351Z,18.96
2022-09-30T18:30:09.663Z,19.00
2022-09-30T18:32:37.671Z,18.89
2022-09-30T18:35:09.762Z,18.84
2022-09-30T18:37:37.821Z,19.23
2022-09-30T18:40:06.772Z,18.97
2022-09-30T18:42:35.034Z,19.16
2022-09-30T18:45:03.092Z,20.33
2022-09-30T18:47:31.212Z,20.39
2022-09-30T18:50:01.694Z,20.26
2022-09-30T18:52:32.064Z,19.58
2022-09-30T18:55:00.071Z,20.09
2022-09-30T18:57:30.521Z,20.52
2022-09-30T18:59:58.632Z,20.34
2022-09-30T19:02:29.119Z,20.35
2022-09-30T19:05:00.080Z,20.34
2022-09-30T19:07:28.321Z,20.63
2022-09-30T19:09:59.300Z,20.98
2022-09-30T19:12:27.300Z,21.18
2022-09-30T19:14:55.316Z,21.21
2022-09-30T19:17:26.240Z,20.86
2022-09-30T19:19:56.536Z,20.97
2022-09-30T19:22:27.505Z,21.22
2022-09-30T19:24:55.593Z,21.64
2022-09-30T19:27:27.044Z,21.77
2022-09-30T19:30:00.231Z,21.64
2022-09-30T19:32:28.305Z,21.76
2022-09-30T19:35:04.260Z,22.17
2022-09-30T19:37:34.414Z,22.23
2022-09-30T19:40:15.973Z,22.54
2022-09-30T19:42:46.613Z,22.76
2022-09-30T19:45:18.019Z,22.95
2022-09-30T19:47:49.820Z,23.47
2022-09-30T19:50:17.905Z,23.04
2022-09-30T19:52:55.606Z,22.94
2022-09-30T19:55:26.343Z,23.17
2022-09-30T19:57:54.472Z,23.88
2022-09-30T20:00:22.479Z,23.76
2022-09-30T20:02:50.614Z,24.11
2022-09-30T20:05:21.096Z,24.20
2022-09-30T20:07:49.188Z,24.72
2022-09-30T20:10:19.726Z,23.52
2022-09-30T20:12:47.762Z,23.98
2022-09-30T20:15:15.914Z,24.71
2022-09-30T20:17:43.907Z,24.66
2022-09-30T20:20:11.871Z,23.60
2022-09-30T20:22:39.985Z,23.50
2022-09-30T20:25:08.388Z,23.97
2022-09-30T20:27:36.395Z,24.38
2022-09-30T20:30:05.801Z,24.29
2022-09-30T20:32:33.891Z,24.04
2022-09-30T20:35:02.082Z,24.43
2022-09-30T20:37:30.139Z,24.85
2022-09-30T20:39:58.179Z,24.40
2022-09-30T20:42:26.245Z,24.91
2022-09-30T20:44:54.390Z,25.47
2022-09-30T20:47:22.476Z,25.70
2022-09-30T20:49:50.492Z,25.57
2022-09-30T20:52:21.376Z,25.44
2022-09-30T20:54:49.476Z,25.35
2022-09-30T20:57:20.389Z,25.39
2022-09-30T20:59:48.429Z,25.57
2022-09-30T21:02:16.535Z,25.25
2022-09-30T21:04:44.572Z,26.14
2022-09-30T21:07:12.753Z,25.81
2022-09-30T21:09:40.780Z,25.76
2022-09-30T21:12:14.370Z,25.18
2022-09-30T21:14:42.814Z,25.68
2022-09-30T21:17:11.428Z,25.59
2022-09-30T21:19:39.463Z,26.01
2022-09-30T21:22:07.811Z,25.74
2022-09-30T21:24:35.825Z,26.63
2022-09-30T21:27:03.897Z,25.62
2022-09-30T21:29:32.231Z,25.66
2022-09-30T21:32:02.773Z,25.66
2022-09-30T21:34:30.842Z,25.61
2022-09-30T21:36:58.899Z,26.43
2022-09-30T21:39:29.249Z,26.73
2022-09-30T21:41:57.340Z,26.33
2022-09-30T21:44:25.476Z,26.21
2022-09-30T21:46:55.756Z,26.25
2022-09-30T21:49:27.156Z,26.20
2022-09-30T21:51:55.176Z,26.56
2022-09-30T21:54:23.171Z,26.13
2022-09-30T21:56:53.871Z,25.97
2022-09-30T21:59:21.880Z,26.08
2022-09-30T22:01:49.882Z,26.11
2022-09-30T22:04:17.907Z,26.42
2022-09-30T22:06:48.768Z,26.88
2022-09-30T22:09:16.825Z,26.72
2022-09-30T22:11:44.847Z,27.16
2022-09-30T22:14:15.457Z,26.84
2022-09-30T22:16:45.867Z,26.94
2022-09-30T22:19:16.716Z,26.76
2022-09-30T22:21:44.755Z,27.02
2022-09-30T22:24:12.873Z,27.33
2022-09-30T22:26:42.034Z,27.06
2022-09-30T22:29:12.311Z,27.43
2022-09-30T22:31:40.977Z,27.60
2022-09-30T22:34:13.827Z,28.32
2022-09-30T22:36:42.364Z,33.22
2022-09-30T22:39:10.432Z,32.36
2022-09-30T22:41:38.756Z,28.48
2022-09-30T22:44:07.450Z,27.24
2022-09-30T22:46:39.472Z,27.27
2022-09-30T22:49:07.757Z,28.20
2022-09-30T22:51:36.038Z,31.12
2022-09-30T22:54:09.684Z,32.33
2022-09-30T22:56:37.682Z,33.79
2022-09-30T22:59:05.764Z,31.21
2022-09-30T23:01:34.058Z,29.32
2022-09-30T23:04:02.492Z,28.90
2022-09-30T23:06:30.552Z,28.54
2022-09-30T23:09:04.420Z,29.67
2022-09-30T23:11:32.803Z,35.85
2022-09-30T23:14:01.815Z,35.96
2022-09-30T23:16:30.404Z,35.79
2022-09-30T23:19:01.876Z,38.82
2022-09-30T23:21:33.103Z,37.92
2022-09-30T23:24:01.394Z,37.50
2022-09-30T23:26:30.823Z,38.23
2022-09-30T23:28:59.697Z,33.42
2022-09-30T23:31:28.296Z,31.08
2022-09-30T23:33:59.192Z,30.35
2022-09-30T23:36:29.628Z,30.33
2022-09-30T23:39:06.285Z,29.71
2022-09-30T23:41:34.517Z,30.17
2022-09-30T23:44:02.892Z,28.53
2022-09-30T23:46:33.645Z,29.38
2022-09-30T23:49:01.732Z,27.94
2022-09-30T23:51:29.827Z,27.53
2022-09-30T23:54:00.701Z,28.01
2022-09-30T23:56:31.648Z,27.72
2022-09-30T23:59:04.939Z,27.46
